sensor_id;sensor_type;location;lat;lon;timestamp;temperature;humidity
45685;DHT22;46836;48.388;16.210;2022-11-10T00:01:08;6.50;99.90
45685;DHT22;46836;48.388;16.210;2022-11-10T00:03:37;6.50;99.90
45685;DHT22;46836;48.388;16.210;2022-11-10T00:06:06;6.50;99.90
45685;DHT22;46836;48.388;16.210;2022-11-10T00:08:34;6.60;99.90
45685;DHT22;46836;48.388;16.210;2022-11-10T00:11:04;6.60;99.90
45685;DHT22;46836;48.388;16.210;2022-11-10T00:13:36;6.60;99.90
45685;DHT22;46836;48.388;16.210;2022-11-10T00:16:23;6.70;99.90
45685;DHT22;46836;48.388;16.210;2022-11-10T00:19:09;6.70;99.90
45685;DHT22;46836;48.388;16.210;2022-11-10T00:21:36;6.70;99.90
45685;DHT22;46836;48.388;16.210;2022-11-10T00:24:04;6.70;99.90
45685;DHT22;46836;48.388;16.210;2022-11-10T00:26:31;6.70;99.90
45685;DHT22;46836;48.388;16.210;2022-11-10T00:28:58;6.70;99.90
45685;DHT22;46836;48.388;16.210;2022-11-10T00:31:25;6.80;99.90
45685;DHT22;46836;48.388;16.210;2022-11-10T00:33:54;6.80;99.90
45685;DHT22;46836;48.388;16.210;2022-11-10T00:36:22;6.80;99.90
45685;DHT22;46836;48.388;16.210;2022-11-10T00:38:50;6.80;99.90
45685;DHT22;46836;48.388;16.210;2022-11-10T00:41:17;6.80;99.90
45685;DHT22;46836;48.388;16.210;2022-11-10T00:43:44;6.80;99.90
45685;DHT22;46836;48.388;16.210;2022-11-10T00:46:11;6.80;99.90
45685;DHT22;46836;48.388;16.210;2022-11-10T00:48:39;6.80;99.90
45685;DHT22;46836;48.388;16.210;2022-11-10T00:51:06;6.80;99.90
45685;DHT22;46836;48.388;16.210;2022-11-10T00:53:34;6.80;99.90
45685;DHT22;46836;48.388;16.210;2022-11-10T00:56:01;6.80;99.90
45685;DHT22;46836;48.388;16.210;2022-11-10T00:58:28;6.80;99.90
45685;DHT22;46836;48.388;16.210;2022-11-10T01:01:02;6.80;99.90
45685;DHT22;46836;48.388;16.210;2022-11-10T01:03:30;6.90;99.90
45685;DHT22;46836;48.388;16.210;2022-11-10T01:05:57;6.90;99.90
45685;DHT22;46836;48.388;16.210;2022-11-10T01:08:24;6.90;99.90
45685;DHT22;46836;48.388;16.210;2022-11-10T01:10:51;7.00;99.90
45685;DHT22;46836;48.388;16.210;2022-11-10T01:13:18;7.00;99.90
45685;DHT22;46836;48.388;16.210;2022-11-10T01:15:46;7.00;99.90
45685;DHT22;46836;48.388;16.210;2022-11-10T01:18:13;7.00;99.90
45685;DHT22;46836;48.388;16.210;2022-11-10T01:20:40;7.00;99.90
45685;DHT22;46836;48.388;16.210;2022-11-10T01:23:07;7.00;99.90
45685;DHT22;46836;48.388;16.210;2022-11-10T01:25:36;7.10;99.90
45685;DHT22;46836;48.388;16.210;2022-11-10T01:28:03;7.10;99.90
45685;DHT22;46836;48.388;16.210;2022-11-10T01:30:30;7.10;99.90
45685;DHT22;46836;48.388;16.210;2022-11-10T01:32:57;7.10;99.90
45685;DHT22;46836;48.388;16.210;2022-11-10T01:35:24;7.10;99.90
45685;DHT22;46836;48.388;16.210;2022-11-10T01:37:51;7.10;99.90
45685;DHT22;46836;48.388;16.210;2022-11-10T01:40:19;7.10;99.90
45685;DHT22;46836;48.388;16.210;2022-11-10T01:42:52;7.10;99.90
45685;DHT22;46836;48.388;16.210;2022-11-10T01:45:32;7.10;99.90
45685;DHT22;46836;48.388;16.210;2022-11-10T01:48:03;7.20;99.90
45685;DHT22;46836;48.388;16.210;2022-11-10T01:50:35;7.20;99.90
45685;DHT22;46836;48.388;16.210;2022-11-10T01:53:05;7.20;99.90
45685;DHT22;46836;48.388;16.210;2022-11-10T01:55:36;7.20;99.90
45685;DHT22;46836;48.388;16.210;2022-11-10T01:58:05;7.30;99.90
45685;DHT22;46836;48.388;16.210;2022-11-10T02:00:32;7.30;99.90
45685;DHT22;46836;48.388;16.210;2022-11-10T02:03:26;7.30;99.90
45685;DHT22;46836;48.388;16.210;2022-11-10T02:05:55;7.40;99.90
45685;DHT22;46836;48.388;16.210;2022-11-10T02:08:23;7.40;99.90
45685;DHT22;46836;48.388;16.210;2022-11-10T02:10:51;7.40;99.90
45685;DHT22;46836;48.388;16.210;2022-11-10T02:13:18;7.40;99.90
45685;DHT22;46836;48.388;16.210;2022-11-10T02:15:46;7.50;99.90
45685;DHT22;46836;48.388;16.210;2022-11-10T02:18:13;7.50;99.90
45685;DHT22;46836;48.388;16.210;2022-11-10T02:20:43;7.50;99.90
45685;DHT22;46836;48.388;16.210;2022-11-10T02:23:41;7.50;99.90
45685;DHT22;46836;48.388;16.210;2022-11-10T02:26:03;7.50;99.90
45685;DHT22;46836;48.388;16.210;2022-11-10T02:28:35;7.50;99.90
45685;DHT22;46836;48.388;16.210;2022-11-10T02:31:04;7.50;99.90
45685;DHT22;46836;48.388;16.210;2022-11-10T02:33:31;7.50;99.90
45685;DHT22;46836;48.388;16.210;2022-11-10T02:35:58;7.50;99.90
45685;DHT22;46836;48.388;16.210;2022-11-10T02:38:25;7.50;99.90
45685;DHT22;46836;48.388;16.210;2022-11-10T02:40:52;7.50;99.90
45685;DHT22;46836;48.388;16.210;2022-11-10T02:43:19;7.60;99.90
45685;DHT22;46836;48.388;16.210;2022-11-10T02:45:47;7.60;99.90
45685;DHT22;46836;48.388;16.210;2022-11-10T02:48:15;7.60;99.90
45685;DHT22;46836;48.388;16.210;2022-11-10T02:50:42;7.60;99.90
45685;DHT22;46836;48.388;16.210;2022-11-10T02:53:09;7.60;99.90
45685;DHT22;46836;48.388;16.210;2022-11-10T02:55:37;7.60;99.90
45685;DHT22;46836;48.388;16.210;2022-11-10T02:58:04;7.60;99.90
45685;DHT22;46836;48.388;16.210;2022-11-10T03:00:31;7.50;99.90
45685;DHT22;46836;48.388;16.210;2022-11-10T03:03:00;7.50;99.90
45685;DHT22;46836;48.388;16.210;2022-11-10T03:05:28;7.60;99.90
45685;DHT22;46836;48.388;16.210;2022-11-10T03:07:59;7.60;99.90
45685;DHT22;46836;48.388;16.210;2022-11-10T03:10:28;7.60;99.90
45685;DHT22;46836;48.388;16.210;2022-11-10T03:12:57;7.60;99.90
45685;DHT22;46836;48.388;16.210;2022-11-10T03:15:24;7.60;99.90
45685;DHT22;46836;48.388;16.210;2022-11-10T03:17:52;7.50;99.90
45685;DHT22;46836;48.388;16.210;2022-11-10T03:20:19;7.50;99.90
45685;DHT22;46836;48.388;16.210;2022-11-10T03:22:46;7.50;99.90
45685;DHT22;46836;48.388;16.210;2022-11-10T03:25:14;7.60;99.90
45685;DHT22;46836;48.388;16.210;2022-11-10T03:27:41;7.60;99.90
45685;DHT22;46836;48.388;16.210;2022-11-10T03:30:08;7.60;99.90
45685;DHT22;46836;48.388;16.210;2022-11-10T03:32:36;7.60;99.90
45685;DHT22;46836;48.388;16.210;2022-11-10T03:35:03;7.60;99.90
45685;DHT22;46836;48.388;16.210;2022-11-10T03:37:30;7.60;99.90
45685;DHT22;46836;48.388;16.210;2022-11-10T03:39:57;7.70;99.90
45685;DHT22;46836;48.388;16.210;2022-11-10T03:42:24;7.70;99.90
45685;DHT22;46836;48.388;16.210;2022-11-10T03:44:51;7.70;99.90
45685;DHT22;46836;48.388;16.210;2022-11-10T03:47:19;7.70;99.90
45685;DHT22;46836;48.388;16.210;2022-11-10T03:49:46;7.70;99.90
45685;DHT22;46836;48.388;16.210;2022-11-10T03:52:13;7.70;99.90
45685;DHT22;46836;48.388;16.210;2022-11-10T03:54:41;7.70;99.90
45685;DHT22;46836;48.388;16.210;2022-11-10T03:57:08;7.70;99.90
45685;DHT22;46836;48.388;16.210;2022-11-10T03:59:35;7.70;99.90
45685;DHT22;46836;48.388;16.210;2022-11-10T04:02:02;7.70;99.90
45685;DHT22;46836;48.388;16.210;2022-11-10T04:04:29;7.70;99.90
45685;DHT22;46836;48.388;16.210;2022-11-10T04:07:15;7.70;99.90
45685;DHT22;46836;48.388;16.210;2022-11-10T04:10:01;7.70;99.90
45685;DHT22;46836;48.388;16.210;2022-11-10T04:12:28;7.70;99.90
45685;DHT22;46836;48.388;16.210;2022-11-10T04:15:14;7.80;99.90
45685;DHT22;46836;48.388;16.210;2022-11-10T04:17:59;7.80;99.90
45685;DHT22;46836;48.388;16.210;2022-11-10T04:20:45;7.80;99.90
45685;DHT22;46836;48.388;16.210;2022-11-10T04:23:14;7.80;99.90
45685;DHT22;46836;48.388;16.210;2022-11-10T04:25:55;7.80;99.90
45685;DHT22;46836;48.388;16.210;2022-11-10T04:28:41;7.70;99.90
45685;DHT22;46836;48.388;16.210;2022-11-10T04:31:08;7.80;99.90
45685;DHT22;46836;48.388;16.210;2022-11-10T04:33:36;7.80;99.90
45685;DHT22;46836;48.388;16.210;2022-11-10T04:36:05;7.80;99.90
45685;DHT22;46836;48.388;16.210;2022-11-10T04:38:33;7.80;99.90
45685;DHT22;46836;48.388;16.210;2022-11-10T04:41:01;7.80;99.90
45685;DHT22;46836;48.388;16.210;2022-11-10T04:43:28;7.90;99.90
45685;DHT22;46836;48.388;16.210;2022-11-10T04:45:55;7.90;99.90
45685;DHT22;46836;48.388;16.210;2022-11-10T04:48:24;7.90;99.90
45685;DHT22;46836;48.388;16.210;2022-11-10T04:50:52;7.90;99.90
45685;DHT22;46836;48.388;16.210;2022-11-10T04:53:19;8.00;99.90
45685;DHT22;46836;48.388;16.210;2022-11-10T04:55:47;8.00;99.90
45685;DHT22;46836;48.388;16.210;2022-11-10T04:58:14;8.00;99.90
45685;DHT22;46836;48.388;16.210;2022-11-10T05:00:42;8.00;99.90
45685;DHT22;46836;48.388;16.210;2022-11-10T05:03:10;8.00;99.90
45685;DHT22;46836;48.388;16.210;2022-11-10T05:05:38;8.10;99.90
45685;DHT22;46836;48.388;16.210;2022-11-10T05:08:06;8.10;99.90
45685;DHT22;46836;48.388;16.210;2022-11-10T05:10:35;8.10;99.90
45685;DHT22;46836;48.388;16.210;2022-11-10T05:13:04;8.10;99.90
45685;DHT22;46836;48.388;16.210;2022-11-10T05:15:32;8.10;99.90
45685;DHT22;46836;48.388;16.210;2022-11-10T05:18:00;8.10;99.90
45685;DHT22;46836;48.388;16.210;2022-11-10T05:20:27;8.10;99.90
45685;DHT22;46836;48.388;16.210;2022-11-10T05:22:54;8.10;99.90
45685;DHT22;46836;48.388;16.210;2022-11-10T05:25:41;8.20;99.90
45685;DHT22;46836;48.388;16.210;2022-11-10T05:28:10;8.10;99.90
45685;DHT22;46836;48.388;16.210;2022-11-10T05:30:38;8.20;99.90
45685;DHT22;46836;48.388;16.210;2022-11-10T05:33:06;8.20;99.90
45685;DHT22;46836;48.388;16.210;2022-11-10T05:35:33;8.20;99.90
45685;DHT22;46836;48.388;16.210;2022-11-10T05:38:01;8.20;99.90
45685;DHT22;46836;48.388;16.210;2022-11-10T05:40:28;8.20;99.90
45685;DHT22;46836;48.388;16.210;2022-11-10T05:42:56;8.30;99.90
45685;DHT22;46836;48.388;16.210;2022-11-10T05:45:26;8.30;99.90
45685;DHT22;46836;48.388;16.210;2022-11-10T05:47:54;8.30;99.90
45685;DHT22;46836;48.388;16.210;2022-11-10T05:50:22;8.30;99.90
45685;DHT22;46836;48.388;16.210;2022-11-10T05:52:54;8.30;99.90
45685;DHT22;46836;48.388;16.210;2022-11-10T05:55:24;8.40;99.90
45685;DHT22;46836;48.388;16.210;2022-11-10T05:57:53;8.30;99.90
45685;DHT22;46836;48.388;16.210;2022-11-10T06:00:23;8.30;99.90
45685;DHT22;46836;48.388;16.210;2022-11-10T06:02:58;8.40;99.90
45685;DHT22;46836;48.388;16.210;2022-11-10T06:05:27;8.40;99.90
45685;DHT22;46836;48.388;16.210;2022-11-10T06:07:58;8.40;99.90
45685;DHT22;46836;48.388;16.210;2022-11-10T06:10:25;8.40;99.90
45685;DHT22;46836;48.388;16.210;2022-11-10T06:12:52;8.40;99.90
45685;DHT22;46836;48.388;16.210;2022-11-10T06:15:20;8.40;99.90
45685;DHT22;46836;48.388;16.210;2022-11-10T06:17:48;8.40;99.90
45685;DHT22;46836;48.388;16.210;2022-11-10T06:20:15;8.40;99.90
45685;DHT22;46836;48.388;16.210;2022-11-10T06:22:44;8.40;99.90
45685;DHT22;46836;48.388;16.210;2022-11-10T06:25:24;8.40;99.90
45685;DHT22;46836;48.388;16.210;2022-11-10T06:27:52;8.40;99.90
45685;DHT22;46836;48.388;16.210;2022-11-10T06:30:19;8.40;99.90
45685;DHT22;46836;48.388;16.210;2022-11-10T06:32:46;8.50;99.90
45685;DHT22;46836;48.388;16.210;2022-11-10T06:35:14;8.50;99.90
45685;DHT22;46836;48.388;16.210;2022-11-10T06:37:41;8.50;99.90
45685;DHT22;46836;48.388;16.210;2022-11-10T06:40:10;8.50;99.90
45685;DHT22;46836;48.388;16.210;2022-11-10T06:42:37;8.50;99.90
45685;DHT22;46836;48.388;16.210;2022-11-10T06:45:04;8.60;99.90
45685;DHT22;46836;48.388;16.210;2022-11-10T06:47:31;8.60;99.90
45685;DHT22;46836;48.388;16.210;2022-11-10T06:49:58;8.60;99.90
45685;DHT22;46836;48.388;16.210;2022-11-10T06:52:25;8.60;99.90
45685;DHT22;46836;48.388;16.210;2022-11-10T06:54:52;8.60;99.90
45685;DHT22;46836;48.388;16.210;2022-11-10T06:57:19;8.70;99.90
45685;DHT22;46836;48.388;16.210;2022-11-10T06:59:46;8.70;99.90
45685;DHT22;46836;48.388;16.210;2022-11-10T07:02:14;8.70;99.90
45685;DHT22;46836;48.388;16.210;2022-11-10T07:04:41;8.70;99.90
45685;DHT22;46836;48.388;16.210;2022-11-10T07:07:09;8.70;99.90
45685;DHT22;46836;48.388;16.210;2022-11-10T07:09:37;8.80;99.90
45685;DHT22;46836;48.388;16.210;2022-11-10T07:12:04;8.80;99.90
45685;DHT22;46836;48.388;16.210;2022-11-10T07:14:31;8.80;99.90
45685;DHT22;46836;48.388;16.210;2022-11-10T07:16:58;8.90;99.90
45685;DHT22;46836;48.388;16.210;2022-11-10T07:19:25;8.90;99.90
45685;DHT22;46836;48.388;16.210;2022-11-10T07:21:52;9.00;99.90
45685;DHT22;46836;48.388;16.210;2022-11-10T07:24:19;9.00;99.90
45685;DHT22;46836;48.388;16.210;2022-11-10T07:26:46;9.10;99.90
45685;DHT22;46836;48.388;16.210;2022-11-10T07:29:13;9.10;99.90
45685;DHT22;46836;48.388;16.210;2022-11-10T07:31:40;9.20;99.90
45685;DHT22;46836;48.388;16.210;2022-11-10T07:34:10;9.30;99.90
45685;DHT22;46836;48.388;16.210;2022-11-10T07:36:37;9.30;99.90
45685;DHT22;46836;48.388;16.210;2022-11-10T07:39:04;9.40;99.90
45685;DHT22;46836;48.388;16.210;2022-11-10T07:41:32;9.40;99.90
45685;DHT22;46836;48.388;16.210;2022-11-10T07:43:59;9.40;99.90
45685;DHT22;46836;48.388;16.210;2022-11-10T07:46:26;9.50;99.90
45685;DHT22;46836;48.388;16.210;2022-11-10T07:48:53;9.50;99.90
45685;DHT22;46836;48.388;16.210;2022-11-10T07:51:20;9.50;99.90
45685;DHT22;46836;48.388;16.210;2022-11-10T07:53:47;9.60;99.90
45685;DHT22;46836;48.388;16.210;2022-11-10T07:56:14;9.60;99.90
45685;DHT22;46836;48.388;16.210;2022-11-10T07:58:41;9.60;99.90
45685;DHT22;46836;48.388;16.210;2022-11-10T08:01:09;9.60;99.90
45685;DHT22;46836;48.388;16.210;2022-11-10T08:03:36;9.60;99.90
45685;DHT22;46836;48.388;16.210;2022-11-10T08:06:03;9.60;99.90
45685;DHT22;46836;48.388;16.210;2022-11-10T08:08:30;9.60;99.90
45685;DHT22;46836;48.388;16.210;2022-11-10T08:10:57;9.70;99.90
45685;DHT22;46836;48.388;16.210;2022-11-10T08:13:24;9.70;99.90
45685;DHT22;46836;48.388;16.210;2022-11-10T08:15:51;9.80;99.90
45685;DHT22;46836;48.388;16.210;2022-11-10T08:18:21;9.80;99.90
45685;DHT22;46836;48.388;16.210;2022-11-10T08:20:48;9.90;99.90
45685;DHT22;46836;48.388;16.210;2022-11-10T08:23:16;9.90;99.90
45685;DHT22;46836;48.388;16.210;2022-11-10T08:25:44;9.90;99.90
45685;DHT22;46836;48.388;16.210;2022-11-10T08:28:16;9.90;99.90
45685;DHT22;46836;48.388;16.210;2022-11-10T08:30:46;10.00;99.90
45685;DHT22;46836;48.388;16.210;2022-11-10T08:33:16;10.00;99.90
45685;DHT22;46836;48.388;16.210;2022-11-10T08:35:48;10.10;99.90
45685;DHT22;46836;48.388;16.210;2022-11-10T08:38:18;10.10;99.90
45685;DHT22;46836;48.388;16.210;2022-11-10T08:40:46;10.20;99.90
45685;DHT22;46836;48.388;16.210;2022-11-10T08:43:15;10.20;99.90
45685;DHT22;46836;48.388;16.210;2022-11-10T08:45:43;10.20;99.90
45685;DHT22;46836;48.388;16.210;2022-11-10T08:48:18;10.30;99.90
45685;DHT22;46836;48.388;16.210;2022-11-10T08:50:46;10.30;99.90
45685;DHT22;46836;48.388;16.210;2022-11-10T08:53:20;10.40;99.90
45685;DHT22;46836;48.388;16.210;2022-11-10T08:55:49;10.40;99.90
45685;DHT22;46836;48.388;16.210;2022-11-10T08:58:19;10.50;99.90
45685;DHT22;46836;48.388;16.210;2022-11-10T09:00:47;10.50;99.90
45685;DHT22;46836;48.388;16.210;2022-11-10T09:03:18;10.60;99.90
45685;DHT22;46836;48.388;16.210;2022-11-10T09:05:48;10.60;99.90
45685;DHT22;46836;48.388;16.210;2022-11-10T09:08:23;10.60;99.90
45685;DHT22;46836;48.388;16.210;2022-11-10T09:10:50;10.70;99.90
45685;DHT22;46836;48.388;16.210;2022-11-10T09:13:18;10.70;99.90
45685;DHT22;46836;48.388;16.210;2022-11-10T09:15:59;10.80;99.90
45685;DHT22;46836;48.388;16.210;2022-11-10T09:18:26;10.80;99.90
45685;DHT22;46836;48.388;16.210;2022-11-10T09:20:53;10.80;99.90
45685;DHT22;46836;48.388;16.210;2022-11-10T09:23:21;10.90;99.90
45685;DHT22;46836;48.388;16.210;2022-11-10T09:25:52;10.90;99.90
45685;DHT22;46836;48.388;16.210;2022-11-10T09:28:20;11.00;99.90
45685;DHT22;46836;48.388;16.210;2022-11-10T09:30:50;11.00;99.90
45685;DHT22;46836;48.388;16.210;2022-11-10T09:33:17;11.00;99.90
45685;DHT22;46836;48.388;16.210;2022-11-10T09:35:45;11.00;99.90
45685;DHT22;46836;48.388;16.210;2022-11-10T09:38:12;11.10;99.90
45685;DHT22;46836;48.388;16.210;2022-11-10T09:41:02;11.00;99.90
45685;DHT22;46836;48.388;16.210;2022-11-10T09:46:22;11.00;99.90
45685;DHT22;46836;48.388;16.210;2022-11-10T09:48:55;11.00;99.90
45685;DHT22;46836;48.388;16.210;2022-11-10T09:51:26;11.00;99.90
45685;DHT22;46836;48.388;16.210;2022-11-10T09:53:57;11.00;99.90
45685;DHT22;46836;48.388;16.210;2022-11-10T09:56:34;11.10;99.90
45685;DHT22;46836;48.388;16.210;2022-11-10T09:59:28;11.10;99.90
45685;DHT22;46836;48.388;16.210;2022-11-10T10:02:28;11.00;99.90
45685;DHT22;46836;48.388;16.210;2022-11-10T10:05:12;11.00;99.90
45685;DHT22;46836;48.388;16.210;2022-11-10T10:08:04;11.00;99.90
45685;DHT22;46836;48.388;16.210;2022-11-10T10:13:19;11.00;99.90
45685;DHT22;46836;48.388;16.210;2022-11-10T10:23:51;11.10;99.90
45685;DHT22;46836;48.388;16.210;2022-11-10T10:26:48;11.10;99.90
45685;DHT22;46836;48.388;16.210;2022-11-10T10:29:22;11.10;99.90
45685;DHT22;46836;48.388;16.210;2022-11-10T10:31:51;11.10;99.90
45685;DHT22;46836;48.388;16.210;2022-11-10T10:34:25;11.10;99.90
45685;DHT22;46836;48.388;16.210;2022-11-10T10:36:53;11.20;99.90
45685;DHT22;46836;48.388;16.210;2022-11-10T10:41:50;11.30;99.90
45685;DHT22;46836;48.388;16.210;2022-11-10T10:44:18;11.40;99.90
45685;DHT22;46836;48.388;16.210;2022-11-10T10:46:54;11.40;99.90
45685;DHT22;46836;48.388;16.210;2022-11-10T10:49:22;11.50;99.90
45685;DHT22;46836;48.388;16.210;2022-11-10T10:52:11;11.50;99.90
45685;DHT22;46836;48.388;16.210;2022-11-10T10:54:39;11.50;99.90
45685;DHT22;46836;48.388;16.210;2022-11-10T10:57:26;11.60;99.90
45685;DHT22;46836;48.388;16.210;2022-11-10T11:00:21;11.60;99.90
45685;DHT22;46836;48.388;16.210;2022-11-10T11:03:06;11.70;99.90
45685;DHT22;46836;48.388;16.210;2022-11-10T11:05:37;11.60;99.90
45685;DHT22;46836;48.388;16.210;2022-11-10T11:08:04;11.60;99.90
45685;DHT22;46836;48.388;16.210;2022-11-10T11:10:34;11.60;99.90
45685;DHT22;46836;48.388;16.210;2022-11-10T11:13:21;11.70;99.90
45685;DHT22;46836;48.388;16.210;2022-11-10T11:16:02;11.70;99.90
45685;DHT22;46836;48.388;16.210;2022-11-10T11:18:31;11.70;99.90
45685;DHT22;46836;48.388;16.210;2022-11-10T11:21:05;11.80;99.90
45685;DHT22;46836;48.388;16.210;2022-11-10T11:23:56;11.80;99.90
45685;DHT22;46836;48.388;16.210;2022-11-10T11:37:16;11.90;99.90
45685;DHT22;46836;48.388;16.210;2022-11-10T11:56:50;12.20;99.90
45685;DHT22;46836;48.388;16.210;2022-11-10T12:08:02;12.30;99.90
45685;DHT22;46836;48.388;16.210;2022-11-10T12:29:38;12.30;99.90
45685;DHT22;46836;48.388;16.210;2022-11-10T12:32:31;12.30;99.90
45685;DHT22;46836;48.388;16.210;2022-11-10T12:35:20;12.30;99.90
45685;DHT22;46836;48.388;16.210;2022-11-10T12:37:59;12.20;99.90
45685;DHT22;46836;48.388;16.210;2022-11-10T12:40:35;12.20;99.90
45685;DHT22;46836;48.388;16.210;2022-11-10T12:46:08;12.30;99.90
45685;DHT22;46836;48.388;16.210;2022-11-10T12:49:03;12.30;99.90
45685;DHT22;46836;48.388;16.210;2022-11-10T12:51:50;12.40;99.90
45685;DHT22;46836;48.388;16.210;2022-11-10T12:54:20;12.50;99.90
45685;DHT22;46836;48.388;16.210;2022-11-10T12:57:02;12.50;99.90
45685;DHT22;46836;48.388;16.210;2022-11-10T12:59:38;12.60;99.90
45685;DHT22;46836;48.388;16.210;2022-11-10T13:02:30;12.50;99.90
45685;DHT22;46836;48.388;16.210;2022-11-10T13:07:47;12.60;99.90
45685;DHT22;46836;48.388;16.210;2022-11-10T13:13:14;12.60;99.90
45685;DHT22;46836;48.388;16.210;2022-11-10T13:18:10;12.40;99.90
45685;DHT22;46836;48.388;16.210;2022-11-10T13:23:29;12.30;99.90
45685;DHT22;46836;48.388;16.210;2022-11-10T13:29:29;12.50;99.90
45685;DHT22;46836;48.388;16.210;2022-11-10T13:34:35;12.50;99.90
45685;DHT22;46836;48.388;16.210;2022-11-10T13:40:32;12.60;99.90
45685;DHT22;46836;48.388;16.210;2022-11-10T13:45:38;12.60;99.90
45685;DHT22;46836;48.388;16.210;2022-11-10T13:48:25;12.70;99.90
45685;DHT22;46836;48.388;16.210;2022-11-10T13:51:23;12.70;99.90
45685;DHT22;46836;48.388;16.210;2022-11-10T13:59:17;12.80;99.90
45685;DHT22;46836;48.388;16.210;2022-11-10T14:01:46;12.80;99.90
45685;DHT22;46836;48.388;16.210;2022-11-10T14:07:02;12.90;99.90
45685;DHT22;46836;48.388;16.210;2022-11-10T14:09:35;12.90;99.90
45685;DHT22;46836;48.388;16.210;2022-11-10T14:15:22;12.80;99.90
45685;DHT22;46836;48.388;16.210;2022-11-10T14:17:52;12.70;99.90
45685;DHT22;46836;48.388;16.210;2022-11-10T14:22:58;12.50;99.90
45685;DHT22;46836;48.388;16.210;2022-11-10T14:25:30;12.50;99.90
45685;DHT22;46836;48.388;16.210;2022-11-10T14:30:52;12.40;99.90
45685;DHT22;46836;48.388;16.210;2022-11-10T14:33:24;12.30;99.90
45685;DHT22;46836;48.388;16.210;2022-11-10T14:35:59;12.30;99.90
45685;DHT22;46836;48.388;16.210;2022-11-10T14:38:30;12.30;99.90
45685;DHT22;46836;48.388;16.210;2022-11-10T14:41:01;12.30;99.90
45685;DHT22;46836;48.388;16.210;2022-11-10T14:45:57;12.20;99.90
45685;DHT22;46836;48.388;16.210;2022-11-10T14:48:31;12.20;99.90
45685;DHT22;46836;48.388;16.210;2022-11-10T14:51:18;12.10;99.90
45685;DHT22;46836;48.388;16.210;2022-11-10T14:53:47;12.10;99.90
45685;DHT22;46836;48.388;16.210;2022-11-10T14:56:22;12.00;99.90
45685;DHT22;46836;48.388;16.210;2022-11-10T14:58:50;12.00;99.90
45685;DHT22;46836;48.388;16.210;2022-11-10T15:04:05;11.90;99.90
45685;DHT22;46836;48.388;16.210;2022-11-10T15:06:32;11.80;99.90
45685;DHT22;46836;48.388;16.210;2022-11-10T15:09:27;11.80;99.90
45685;DHT22;46836;48.388;16.210;2022-11-10T15:12:22;11.80;99.90
45685;DHT22;46836;48.388;16.210;2022-11-10T15:14:59;11.80;99.90
45685;DHT22;46836;48.388;16.210;2022-11-10T15:17:47;11.70;99.90
45685;DHT22;46836;48.388;16.210;2022-11-10T15:20:34;11.60;99.90
45685;DHT22;46836;48.388;16.210;2022-11-10T15:23:18;11.60;99.90
45685;DHT22;46836;48.388;16.210;2022-11-10T15:25:48;11.60;99.90
45685;DHT22;46836;48.388;16.210;2022-11-10T15:28:28;11.50;99.90
45685;DHT22;46836;48.388;16.210;2022-11-10T15:30:59;11.50;99.90
45685;DHT22;46836;48.388;16.210;2022-11-10T15:33:30;11.50;99.90
45685;DHT22;46836;48.388;16.210;2022-11-10T15:38:43;11.60;99.90
45685;DHT22;46836;48.388;16.210;2022-11-10T15:41:14;11.60;99.90
45685;DHT22;46836;48.388;16.210;2022-11-10T15:43:41;11.60;99.90
45685;DHT22;46836;48.388;16.210;2022-11-10T15:46:14;11.60;99.90
45685;DHT22;46836;48.388;16.210;2022-11-10T15:48:46;11.60;99.90
45685;DHT22;46836;48.388;16.210;2022-11-10T15:51:17;11.60;99.90
45685;DHT22;46836;48.388;16.210;2022-11-10T15:53:52;11.60;99.90
45685;DHT22;46836;48.388;16.210;2022-11-10T15:56:22;11.60;99.90
45685;DHT22;46836;48.388;16.210;2022-11-10T15:58:51;11.50;99.90
45685;DHT22;46836;48.388;16.210;2022-11-10T16:01:26;11.50;99.90
45685;DHT22;46836;48.388;16.210;2022-11-10T16:03:54;11.40;99.90
45685;DHT22;46836;48.388;16.210;2022-11-10T16:06:21;11.40;99.90
45685;DHT22;46836;48.388;16.210;2022-11-10T16:08:48;11.30;99.90
45685;DHT22;46836;48.388;16.210;2022-11-10T16:11:20;11.30;99.90
45685;DHT22;46836;48.388;16.210;2022-11-10T16:13:48;11.30;99.90
45685;DHT22;46836;48.388;16.210;2022-11-10T16:16:17;11.20;99.90
45685;DHT22;46836;48.388;16.210;2022-11-10T16:18:45;11.20;99.90
45685;DHT22;46836;48.388;16.210;2022-11-10T16:21:14;11.20;99.90
45685;DHT22;46836;48.388;16.210;2022-11-10T16:23:42;11.20;99.90
45685;DHT22;46836;48.388;16.210;2022-11-10T16:26:13;11.20;99.90
45685;DHT22;46836;48.388;16.210;2022-11-10T16:28:41;11.20;99.90
45685;DHT22;46836;48.388;16.210;2022-11-10T16:31:10;11.30;99.90
45685;DHT22;46836;48.388;16.210;2022-11-10T16:33:38;11.30;99.90
45685;DHT22;46836;48.388;16.210;2022-11-10T16:36:11;11.30;99.90
45685;DHT22;46836;48.388;16.210;2022-11-10T16:38:40;11.30;99.90
45685;DHT22;46836;48.388;16.210;2022-11-10T16:41:11;11.30;99.90
45685;DHT22;46836;48.388;16.210;2022-11-10T16:43:40;11.30;99.90
45685;DHT22;46836;48.388;16.210;2022-11-10T16:46:22;11.30;99.90
45685;DHT22;46836;48.388;16.210;2022-11-10T16:48:52;11.30;99.90
45685;DHT22;46836;48.388;16.210;2022-11-10T16:51:30;11.40;99.90
45685;DHT22;46836;48.388;16.210;2022-11-10T16:53:59;11.40;99.90
45685;DHT22;46836;48.388;16.210;2022-11-10T16:56:26;11.40;99.90
45685;DHT22;46836;48.388;16.210;2022-11-10T16:58:53;11.40;99.90
45685;DHT22;46836;48.388;16.210;2022-11-10T17:01:32;11.40;99.90
45685;DHT22;46836;48.388;16.210;2022-11-10T17:04:07;11.40;99.90
45685;DHT22;46836;48.388;16.210;2022-11-10T17:06:36;11.40;99.90
45685;DHT22;46836;48.388;16.210;2022-11-10T17:09:18;11.40;99.90
45685;DHT22;46836;48.388;16.210;2022-11-10T17:11:48;11.40;99.90
45685;DHT22;46836;48.388;16.210;2022-11-10T17:14:15;11.40;99.90
45685;DHT22;46836;48.388;16.210;2022-11-10T17:16:44;11.40;99.90
45685;DHT22;46836;48.388;16.210;2022-11-10T17:19:19;11.40;99.90
45685;DHT22;46836;48.388;16.210;2022-11-10T17:21:48;11.40;99.90
45685;DHT22;46836;48.388;16.210;2022-11-10T17:24:16;11.40;99.90
45685;DHT22;46836;48.388;16.210;2022-11-10T17:26:45;11.30;99.90
45685;DHT22;46836;48.388;16.210;2022-11-10T17:29:20;11.40;99.90
45685;DHT22;46836;48.388;16.210;2022-11-10T17:31:48;11.30;99.90
45685;DHT22;46836;48.388;16.210;2022-11-10T17:34:18;11.30;99.90
45685;DHT22;46836;48.388;16.210;2022-11-10T17:36:47;11.30;99.90
45685;DHT22;46836;48.388;16.210;2022-11-10T17:39:16;11.30;99.90
45685;DHT22;46836;48.388;16.210;2022-11-10T17:41:43;11.30;99.90
45685;DHT22;46836;48.388;16.210;2022-11-10T17:44:15;11.30;99.90
45685;DHT22;46836;48.388;16.210;2022-11-10T17:46:45;11.30;99.90
45685;DHT22;46836;48.388;16.210;2022-11-10T17:49:12;11.30;99.90
45685;DHT22;46836;48.388;16.210;2022-11-10T17:51:39;11.30;99.90